Time;durP1;ratioP1;P1;durP2;ratioP2;P2;SDS_P1;SDS_P2;PMS_P1;PMS_P2;Temp;Humidity;BMP_temperature;BMP_pressure;BME280_temperature;BME280_humidity;BME280_pressure;Samples;Min_cycle;Max_cycle;Signal;HPM_P1;HPM_P2
2021/08/31 00:00:21;;;;;;;;;;;12.50;93.40;;;;;;5029840;28;20392;-65
2021/08/31 00:02:46;;;;;;;;;;;12.50;93.50;;;;;;4996212;28;19918;-65
2021/08/31 00:05:13;;;;;;;;;;;12.50;93.60;;;;;;5011047;28;19917;-64
2021/08/31 00:07:38;;;;;;;;;;;12.50;93.60;;;;;;5010133;28;19925;-66
2021/08/31 00:10:05;;;;;;;;;;;12.40;93.40;;;;;;5010678;28;19917;-65
2021/08/31 00:12:30;;;;;;;;;;;12.40;93.60;;;;;;5010873;28;20008;-66
2021/08/31 00:14:56;;;;;;;;;;;12.40;93.60;;;;;;5010263;28;20012;-65
2021/08/31 00:17:22;;;;;;;;;;;12.40;93.60;;;;;;5011362;28;19965;-65
2021/08/31 00:19:47;;;;;;;;;;;12.40;93.50;;;;;;5013378;28;19926;-65
2021/08/31 00:22:13;;;;;;;;;;;11.80;93.60;;;;;;4996829;28;19924;-65
2021/08/31 00:24:40;;;;;;;;;;;12.30;93.80;;;;;;4997305;28;19925;-65
2021/08/31 00:27:06;;;;;;;;;;;12.30;93.80;;;;;;5013983;28;19997;-65
2021/08/31 00:29:32;;;;;;;;;;;12.30;93.60;;;;;;5014093;28;19960;-65
2021/08/31 00:31:58;;;;;;;;;;;12.30;93.80;;;;;;5021116;28;19921;-64
2021/08/31 00:34:23;;;;;;;;;;;12.30;93.90;;;;;;5032426;28;20012;-64
2021/08/31 00:36:49;;;;;;;;;;;12.30;93.90;;;;;;5015935;28;19924;-65
2021/08/31 00:39:14;;;;;;;;;;;12.30;93.80;;;;;;5021954;28;19917;-64
2021/08/31 00:41:40;;;;;;;;;;;12.30;94.00;;;;;;5024095;28;19917;-64
2021/08/31 00:44:15;;;;;;;;;;;12.30;93.90;;;;;;5016207;28;19924;-64
2021/08/31 00:46:40;;;;;;;;;;;12.30;93.90;;;;;;5033210;28;19936;-65
2021/08/31 00:49:06;;;;;;;;;;;12.30;93.80;;;;;;5032961;28;20344;-65
2021/08/31 00:51:31;;;;;;;;;;;12.30;94.00;;;;;;5015678;28;19975;-64
2021/08/31 00:53:57;;;;;;;;;;;12.30;94.00;;;;;;5033317;28;19924;-65
2021/08/31 00:56:22;;;;;;;;;;;12.30;93.90;;;;;;5016041;28;19924;-65
2021/08/31 00:58:48;;;;;;;;;;;12.20;93.80;;;;;;5033110;28;19917;-64
2021/08/31 01:01:13;;;;;;;;;;;12.20;94.00;;;;;;5033133;28;19947;-65
2021/08/31 01:03:40;;;;;;;;;;;12.20;94.10;;;;;;5033584;28;20378;-65
2021/08/31 01:06:06;;;;;;;;;;;12.20;94.00;;;;;;5033536;28;20325;-64
2021/08/31 01:08:31;;;;;;;;;;;12.20;94.00;;;;;;5032210;28;19917;-65
2021/08/31 01:10:58;;;;;;;;;;;12.10;93.90;;;;;;5033239;28;19928;-66
2021/08/31 01:13:24;;;;;;;;;;;12.10;94.10;;;;;;5032898;28;19917;-64
2021/08/31 01:15:50;;;;;;;;;;;12.10;94.20;;;;;;5033318;28;19925;-65
2021/08/31 01:18:19;;;;;;;;;;;12.10;94.20;;;;;;5014777;28;20289;-65
2021/08/31 01:20:44;;;;;;;;;;;12.10;94.00;;;;;;5032800;28;20421;-65
2021/08/31 01:23:11;;;;;;;;;;;12.10;94.20;;;;;;5033113;28;20003;-64
2021/08/31 01:25:36;;;;;;;;;;;12.00;94.10;;;;;;5014900;28;20022;-64
2021/08/31 01:28:02;;;;;;;;;;;12.00;94.30;;;;;;5032060;28;19944;-65
2021/08/31 01:30:27;;;;;;;;;;;12.00;94.10;;;;;;5016346;28;19918;-64
2021/08/31 01:32:53;;;;;;;;;;;12.00;94.30;;;;;;5032573;28;19928;-65
2021/08/31 01:35:18;;;;;;;;;;;12.00;94.20;;;;;;5033256;28;19921;-64
2021/08/31 01:37:44;;;;;;;;;;;11.90;94.00;;;;;;5021920;28;20324;-64
2021/08/31 01:40:10;;;;;;;;;;;11.90;94.10;;;;;;5032072;28;20270;-65
2021/08/31 01:42:36;;;;;;;;;;;11.90;94.60;;;;;;5015537;28;19924;-65
2021/08/31 01:45:01;;;;;;;;;;;11.90;94.40;;;;;;5033317;28;19918;-63
2021/08/31 01:47:27;;;;;;;;;;;11.90;94.30;;;;;;5032298;28;19921;-64
2021/08/31 01:49:52;;;;;;;;;;;11.80;94.10;;;;;;5015248;28;19921;-64
2021/08/31 01:52:18;;;;;;;;;;;11.80;94.30;;;;;;5014769;28;19928;-64
2021/08/31 01:54:43;;;;;;;;;;;11.80;94.40;;;;;;5032828;28;19924;-65
2021/08/31 01:57:09;;;;;;;;;;;11.80;94.40;;;;;;5032525;28;19963;-64
2021/08/31 01:59:34;;;;;;;;;;;11.80;94.30;;;;;;5014727;28;19921;-64
2021/08/31 02:02:00;;;;;;;;;;;11.80;94.40;;;;;;5015124;28;20008;-64
2021/08/31 02:04:25;;;;;;;;;;;11.80;94.40;;;;;;5015170;28;19918;-63
2021/08/31 02:06:51;;;;;;;;;;;11.80;94.40;;;;;;5014335;28;19963;-64
2021/08/31 02:09:16;;;;;;;;;;;11.70;94.20;;;;;;5032498;28;19925;-64
2021/08/31 02:11:42;;;;;;;;;;;11.70;94.40;;;;;;5031117;28;19953;-64
2021/08/31 02:14:07;;;;;;;;;;;11.70;94.50;;;;;;5032153;28;19933;-64
2021/08/31 02:16:35;;;;;;;;;;;11.70;94.50;;;;;;5032427;28;19917;-65
2021/08/31 02:19:01;;;;;;;;;;;11.60;94.30;;;;;;5014607;28;19967;-65
2021/08/31 02:21:26;;;;;;;;;;;11.60;94.50;;;;;;5032110;28;19921;-65
2021/08/31 02:23:52;;;;;;;;;;;11.60;94.50;;;;;;5032427;28;19953;-64
2021/08/31 02:26:17;;;;;;;;;;;11.60;94.60;;;;;;5031920;28;19917;-64
2021/08/31 02:28:43;;;;;;;;;;;11.60;94.40;;;;;;5032025;28;19917;-64
2021/08/31 02:31:10;;;;;;;;;;;11.60;94.60;;;;;;5032125;28;19921;-64
2021/08/31 02:33:35;;;;;;;;;;;11.60;94.60;;;;;;5013919;28;19921;-64
2021/08/31 02:36:01;;;;;;;;;;;11.50;94.50;;;;;;5032203;28;19924;-64
2021/08/31 02:38:26;;;;;;;;;;;11.50;94.60;;;;;;5031725;28;20011;-64
2021/08/31 02:40:52;;;;;;;;;;;11.50;94.40;;;;;;5031151;28;20422;-64
2021/08/31 02:43:17;;;;;;;;;;;11.50;94.60;;;;;;5032190;28;19996;-64
2021/08/31 02:45:43;;;;;;;;;;;11.40;94.50;;;;;;5031571;28;20044;-65
2021/08/31 02:48:08;;;;;;;;;;;11.40;94.50;;;;;;5014005;28;19917;-64
2021/08/31 02:50:34;;;;;;;;;;;11.30;94.30;;;;;;5032194;28;20300;-64
2021/08/31 02:52:59;;;;;;;;;;;11.30;94.50;;;;;;5030179;28;20377;-64
2021/08/31 02:55:25;;;;;;;;;;;11.30;94.60;;;;;;4997773;28;19917;-64
2021/08/31 02:57:51;;;;;;;;;;;11.20;94.60;;;;;;5031173;28;19917;-64
2021/08/31 03:00:19;;;;;;;;;;;11.20;94.50;;;;;;5031736;28;20030;-64
2021/08/31 03:02:46;;;;;;;;;;;11.20;94.70;;;;;;5013968;28;20366;-63
2021/08/31 03:05:12;;;;;;;;;;;11.20;94.60;;;;;;5031301;28;19918;-64
2021/08/31 03:07:37;;;;;;;;;;;11.20;94.60;;;;;;5013629;28;20332;-63
2021/08/31 03:10:03;;;;;;;;;;;11.10;94.40;;;;;;5031498;28;20016;-64
2021/08/31 03:12:29;;;;;;;;;;;11.10;94.70;;;;;;5030954;28;19921;-64
2021/08/31 03:14:54;;;;;;;;;;;11.10;94.80;;;;;;5031685;28;19959;-63
2021/08/31 03:17:20;;;;;;;;;;;11.10;94.80;;;;;;5031054;28;20016;-64
2021/08/31 03:19:45;;;;;;;;;;;11.10;94.60;;;;;;5031436;28;19999;-64
2021/08/31 03:22:11;;;;;;;;;;;11.10;94.70;;;;;;5014127;28;20369;-64
2021/08/31 03:24:37;;;;;;;;;;;11.10;94.70;;;;;;5031328;28;19925;-63
2021/08/31 03:27:05;;;;;;;;;;;11.00;94.90;;;;;;5031248;28;20266;-63
2021/08/31 03:29:31;;;;;;;;;;;11.10;94.70;;;;;;5031497;28;19917;-62
2021/08/31 03:31:56;;;;;;;;;;;11.10;94.90;;;;;;5013568;28;20284;-63
2021/08/31 03:34:22;;;;;;;;;;;11.00;94.90;;;;;;5031545;28;19917;-63
2021/08/31 03:36:47;;;;;;;;;;;11.00;94.90;;;;;;5031494;28;20362;-63
2021/08/31 03:39:13;;;;;;;;;;;11.00;94.60;;;;;;5030924;28;19925;-63
2021/08/31 03:41:38;;;;;;;;;;;11.00;94.80;;;;;;5031492;28;20369;-64
2021/08/31 03:44:05;;;;;;;;;;;11.00;94.90;;;;;;5031365;28;19918;-63
2021/08/31 03:46:30;;;;;;;;;;;11.00;94.80;;;;;;5031096;28;19917;-63
2021/08/31 03:48:56;;;;;;;;;;;11.00;94.70;;;;;;5030952;28;19956;-62
2021/08/31 03:51:21;;;;;;;;;;;11.00;94.90;;;;;;5030872;28;19971;-64
2021/08/31 03:53:47;;;;;;;;;;;11.00;94.90;;;;;;5034889;28;20076;-63
2021/08/31 03:56:12;;;;;;;;;;;11.00;94.90;;;;;;5035188;28;20000;-63
2021/08/31 03:58:38;;;;;;;;;;;10.90;94.70;;;;;;5034417;28;20344;-63
2021/08/31 04:01:04;;;;;;;;;;;10.90;94.90;;;;;;5033848;28;19925;-64
2021/08/31 04:03:29;;;;;;;;;;;10.90;95.00;;;;;;5035015;28;20011;-67
2021/08/31 04:05:55;;;;;;;;;;;11.00;95.00;;;;;;5034598;28;19917;-62
2021/08/31 04:08:20;;;;;;;;;;;11.00;95.00;;;;;;5034723;28;19917;-63
2021/08/31 04:10:46;;;;;;;;;;;11.00;94.80;;;;;;5034847;28;19988;-64
2021/08/31 04:13:13;;;;;;;;;;;11.00;95.00;;;;;;5016677;28;20015;-64
2021/08/31 04:15:39;;;;;;;;;;;11.00;95.00;;;;;;5017140;28;19917;-63
2021/08/31 04:18:04;;;;;;;;;;;11.00;95.00;;;;;;5034000;28;20000;-63
2021/08/31 04:20:30;;;;;;;;;;;11.00;94.90;;;;;;5034643;28;19917;-63
2021/08/31 04:22:56;;;;;;;;;;;11.00;95.10;;;;;;5034964;28;19917;-64
2021/08/31 04:25:22;;;;;;;;;;;11.00;95.20;;;;;;5034174;28;19929;-64
2021/08/31 04:27:48;;;;;;;;;;;11.00;95.20;;;;;;5034346;28;19971;-64
2021/08/31 04:30:14;;;;;;;;;;;11.10;95.00;;;;;;5034021;28;20381;-63
2021/08/31 04:32:39;;;;;;;;;;;11.10;95.20;;;;;;5000415;28;19921;-63
2021/08/31 04:35:06;;;;;;;;;;;11.10;95.20;;;;;;5033699;28;22333;-64
2021/08/31 04:37:32;;;;;;;;;;;11.10;95.30;;;;;;5016104;28;19924;-63
2021/08/31 04:39:58;;;;;;;;;;;11.10;95.10;;;;;;5000205;28;20382;-63
2021/08/31 04:42:24;;;;;;;;;;;11.10;95.30;;;;;;5034399;28;19917;-64
2021/08/31 04:44:49;;;;;;;;;;;11.20;95.30;;;;;;5033744;28;19968;-63
2021/08/31 04:47:16;;;;;;;;;;;11.20;95.30;;;;;;5033955;28;19992;-63
2021/08/31 04:49:41;;;;;;;;;;;11.20;95.20;;;;;;5015854;28;19978;-64
2021/08/31 04:52:07;;;;;;;;;;;11.20;95.40;;;;;;5016234;28;19925;-63
2021/08/31 04:54:33;;;;;;;;;;;11.30;95.50;;;;;;5034089;28;19918;-63
2021/08/31 04:56:58;;;;;;;;;;;11.30;95.50;;;;;;5015661;28;19962;-63
2021/08/31 04:59:24;;;;;;;;;;;11.30;95.50;;;;;;5033752;28;20381;-63
2021/08/31 05:01:51;;;;;;;;;;;11.40;95.50;;;;;;5033910;28;20262;-63
2021/08/31 05:04:17;;;;;;;;;;;11.40;95.50;;;;;;5032975;28;19927;-63
2021/08/31 05:06:43;;;;;;;;;;;11.40;95.60;;;;;;5033574;28;20290;-64
2021/08/31 05:09:09;;;;;;;;;;;11.50;95.50;;;;;;5033823;28;19920;-64
2021/08/31 05:11:35;;;;;;;;;;;11.50;95.60;;;;;;5033241;28;19921;-64
2021/08/31 05:14:01;;;;;;;;;;;11.60;95.70;;;;;;5033741;28;19917;-64
2021/08/31 05:16:26;;;;;;;;;;;11.60;95.70;;;;;;5033232;28;19917;-64
2021/08/31 05:18:52;;;;;;;;;;;11.80;95.70;;;;;;5033346;28;19967;-64
2021/08/31 05:21:17;;;;;;;;;;;11.80;96.10;;;;;;5033684;28;20000;-64
2021/08/31 05:23:43;;;;;;;;;;;12.00;96.40;;;;;;5015498;28;19917;-63
2021/08/31 05:26:08;;;;;;;;;;;12.20;96.60;;;;;;5033433;28;20266;-63
2021/08/31 05:28:34;;;;;;;;;;;12.50;97.20;;;;;;5015517;28;20001;-64
2021/08/31 05:30:59;;;;;;;;;;;12.90;97.30;;;;;;5032772;28;19937;-64
2021/08/31 05:33:25;;;;;;;;;;;13.40;97.80;;;;;;5032054;28;19996;-63
2021/08/31 05:35:50;;;;;;;;;;;13.70;97.50;;;;;;5033258;28;19920;-65
2021/08/31 05:38:16;;;;;;;;;;;13.80;96.70;;;;;;5014902;28;20385;-64
2021/08/31 05:40:41;;;;;;;;;;;13.80;96.20;;;;;;5015437;28;20309;-64
2021/08/31 05:43:07;;;;;;;;;;;13.80;96.20;;;;;;5015687;28;20011;-64
2021/08/31 05:45:33;;;;;;;;;;;13.70;96.20;;;;;;4996398;28;19933;-64
2021/08/31 05:47:58;;;;;;;;;;;13.80;96.60;;;;;;5031001;28;20293;-65
2021/08/31 05:50:24;;;;;;;;;;;14.00;96.50;;;;;;5030540;28;19955;-65
2021/08/31 05:52:50;;;;;;;;;;;14.10;96.70;;;;;;5013191;28;19928;-64
2021/08/31 05:55:16;;;;;;;;;;;14.10;96.40;;;;;;5031064;28;19918;-64
2021/08/31 05:57:41;;;;;;;;;;;14.20;96.40;;;;;;5030510;28;20432;-64
2021/08/31 06:00:08;;;;;;;;;;;14.30;96.20;;;;;;5030854;28;19921;-65
2021/08/31 06:02:39;;;;;;;;;;;14.40;96.50;;;;;;5013518;28;19975;-65
2021/08/31 06:05:07;;;;;;;;;;;14.90;97.40;;;;;;5030812;28;19923;-64
2021/08/31 06:07:35;;;;;;;;;;;15.10;96.80;;;;;;5030626;28;20297;-66
2021/08/31 06:10:02;;;;;;;;;;;15.20;96.30;;;;;;5012472;28;19921;-66
2021/08/31 06:12:27;;;;;;;;;;;15.20;96.10;;;;;;5012912;28;19939;-66
2021/08/31 06:14:53;;;;;;;;;;;15.20;96.10;;;;;;5029926;28;19921;-64
2021/08/31 06:17:19;;;;;;;;;;;15.50;96.60;;;;;;5030252;28;19960;-64
2021/08/31 06:19:45;;;;;;;;;;;16.20;98.10;;;;;;5031370;28;19917;-65
2021/08/31 06:22:10;;;;;;;;;;;17.50;99.30;;;;;;5030939;28;20385;-65
2021/08/31 06:24:36;;;;;;;;;;;18.90;98.90;;;;;;5031342;28;19960;-66
2021/08/31 06:27:03;;;;;;;;;;;20.30;97.50;;;;;;5030588;28;19960;-65
2021/08/31 06:29:29;;;;;;;;;;;21.50;96.00;;;;;;5030759;28;20241;-64
2021/08/31 06:31:55;;;;;;;;;;;22.60;94.90;;;;;;5031473;28;19933;-67
2021/08/31 06:34:20;;;;;;;;;;;23.60;93.80;;;;;;5011528;28;19925;-67
2021/08/31 06:36:47;;;;;;;;;;;24.40;92.60;;;;;;5009755;28;19917;-68
2021/08/31 06:39:13;;;;;;;;;;;25.20;91.50;;;;;;5029549;28;20457;-67
2021/08/31 06:41:38;;;;;;;;;;;26.00;90.60;;;;;;5029109;28;19917;-68
2021/08/31 06:44:04;;;;;;;;;;;26.60;88.70;;;;;;5011634;28;20007;-68
2021/08/31 06:46:29;;;;;;;;;;;27.20;85.10;;;;;;5029635;28;19924;-67
2021/08/31 06:48:55;;;;;;;;;;;27.70;84.60;;;;;;5029439;28;19924;-67
2021/08/31 06:51:20;;;;;;;;;;;28.30;81.40;;;;;;5031754;28;20009;-67
2021/08/31 06:53:46;;;;;;;;;;;28.70;79.10;;;;;;5031285;28;20329;-68
2021/08/31 06:56:11;;;;;;;;;;;29.10;76.40;;;;;;5031528;28;19921;-67
2021/08/31 06:58:37;;;;;;;;;;;29.60;74.80;;;;;;5031228;28;19917;-67
2021/08/31 07:01:03;;;;;;;;;;;30.20;72.80;;;;;;5013250;28;20374;-67
2021/08/31 07:03:28;;;;;;;;;;;30.70;70.00;;;;;;5031373;28;20305;-67
2021/08/31 07:05:54;;;;;;;;;;;31.00;67.80;;;;;;5031495;28;20004;-67
2021/08/31 07:08:19;;;;;;;;;;;31.50;65.90;;;;;;5030408;28;20373;-68
2021/08/31 07:10:45;;;;;;;;;;;32.00;63.10;;;;;;5030021;28;20337;-68
2021/08/31 07:13:13;;;;;;;;;;;32.40;61.20;;;;;;5030324;28;19925;-65
2021/08/31 07:15:38;;;;;;;;;;;32.80;59.10;;;;;;5030389;28;20016;-66
2021/08/31 07:18:04;;;;;;;;;;;33.30;57.50;;;;;;5028932;28;20336;-67
2021/08/31 07:20:30;;;;;;;;;;;33.70;55.70;;;;;;5011292;28;19917;-67
2021/08/31 07:22:55;;;;;;;;;;;34.10;53.60;;;;;;5030002;28;20397;-67
2021/08/31 07:25:21;;;;;;;;;;;34.50;52.20;;;;;;5013581;28;19939;-67
2021/08/31 07:27:47;;;;;;;;;;;34.80;50.90;;;;;;5034445;28;19956;-68
2021/08/31 07:30:12;;;;;;;;;;;35.20;49.80;;;;;;5035390;28;20319;-65
2021/08/31 07:32:38;;;;;;;;;;;35.50;48.30;;;;;;5035218;28;19940;-66
2021/08/31 07:35:04;;;;;;;;;;;35.70;47.10;;;;;;5034243;28;20408;-66
2021/08/31 07:37:29;;;;;;;;;;;36.10;46.40;;;;;;5016671;28;19917;-65
2021/08/31 07:39:55;;;;;;;;;;;36.50;45.20;;;;;;5034510;28;19963;-66
2021/08/31 07:42:20;;;;;;;;;;;36.80;44.40;;;;;;5034151;28;20293;-65
2021/08/31 07:44:46;;;;;;;;;;;37.20;43.20;;;;;;5034531;28;19917;-65
2021/08/31 07:47:13;;;;;;;;;;;37.50;42.30;;;;;;5034191;28;19923;-67
2021/08/31 07:49:39;;;;;;;;;;;37.70;41.50;;;;;;5000294;28;19921;-65
2021/08/31 07:52:04;;;;;;;;;;;37.90;41.10;;;;;;5016804;28;19927;-66
2021/08/31 07:54:30;;;;;;;;;;;38.30;40.40;;;;;;5016125;28;20385;-66
2021/08/31 07:56:56;;;;;;;;;;;38.60;39.50;;;;;;5034449;28;19971;-66
2021/08/31 07:59:21;;;;;;;;;;;38.90;38.90;;;;;;5030083;28;19941;-65
2021/08/31 08:01:47;;;;;;;;;;;39.10;38.30;;;;;;5002362;28;19987;-66
2021/08/31 08:04:13;;;;;;;;;;;39.40;38.00;;;;;;5010306;28;19941;-66
2021/08/31 08:06:39;;;;;;;;;;;39.80;37.20;;;;;;5015880;28;19924;-65
2021/08/31 08:09:05;;;;;;;;;;;40.10;36.30;;;;;;5013214;28;20005;-66
2021/08/31 08:11:31;;;;;;;;;;;40.40;36.00;;;;;;5012807;28;19922;-66
2021/08/31 08:13:56;;;;;;;;;;;40.70;35.00;;;;;;5012349;28;20008;-67
2021/08/31 08:16:22;;;;;;;;;;;41.00;34.80;;;;;;4996324;28;19917;-66
2021/08/31 08:18:48;;;;;;;;;;;41.20;34.00;;;;;;5025508;28;20412;-65
2021/08/31 08:21:13;;;;;;;;;;;41.50;33.80;;;;;;5030994;28;19921;-68
2021/08/31 08:23:40;;;;;;;;;;;41.80;33.30;;;;;;5032883;28;19924;-66
2021/08/31 08:26:06;;;;;;;;;;;41.90;33.10;;;;;;5033092;28;19917;-66
2021/08/31 08:28:32;;;;;;;;;;;42.20;33.00;;;;;;5033298;28;19917;-66
2021/08/31 08:30:57;;;;;;;;;;;42.60;32.60;;;;;;5034055;28;19936;-67
2021/08/31 08:33:23;;;;;;;;;;;43.00;32.00;;;;;;5015993;28;19921;-66
2021/08/31 08:35:49;;;;;;;;;;;43.20;31.20;;;;;;5034195;28;19921;-66
2021/08/31 08:38:14;;;;;;;;;;;43.30;30.40;;;;;;5032971;28;20399;-66
2021/08/31 08:40:40;;;;;;;;;;;43.50;30.20;;;;;;5033735;28;20424;-67
2021/08/31 08:43:06;;;;;;;;;;;43.60;30.00;;;;;;5034149;28;19921;-68
2021/08/31 08:45:32;;;;;;;;;;;44.00;29.60;;;;;;5016439;28;19913;-68
2021/08/31 08:47:58;;;;;;;;;;;44.20;29.60;;;;;;5033630;28;19979;-68
2021/08/31 08:50:24;;;;;;;;;;;44.50;29.30;;;;;;5036321;28;20278;-70
2021/08/31 08:52:50;;;;;;;;;;;44.80;29.00;;;;;;5033258;28;19978;-71
2021/08/31 08:55:16;;;;;;;;;;;45.30;28.80;;;;;;5033808;28;20308;-70
2021/08/31 08:57:42;;;;;;;;;;;45.60;28.10;;;;;;5033274;28;19940;-70
2021/08/31 09:00:09;;;;;;;;;;;45.50;27.70;;;;;;5033432;28;19917;-70
2021/08/31 09:02:43;;;;;;;;;;;45.50;27.30;;;;;;5033907;28;19940;-71
2021/08/31 09:05:10;;;;;;;;;;;45.50;27.20;;;;;;5033291;28;19917;-71
2021/08/31 09:07:37;;;;;;;;;;;45.50;27.10;;;;;;5033362;28;20382;-71
2021/08/31 09:10:17;;;;;;;;;;;45.90;27.20;;;;;;5033656;28;19918;-71
2021/08/31 09:12:45;;;;;;;;;;;46.30;27.10;;;;;;5032939;28;19921;-71
2021/08/31 09:15:22;;;;;;;;;;;46.70;26.60;;;;;;5033425;28;19917;-71
2021/08/31 09:18:03;;;;;;;;;;;46.70;26.30;;;;;;5032878;28;19917;-71
2021/08/31 09:20:30;;;;;;;;;;;46.60;26.00;;;;;;5028050;28;19933;-71
2021/08/31 09:22:55;;;;;;;;;;;46.70;26.00;;;;;;5031992;28;19932;-70
2021/08/31 09:25:31;;;;;;;;;;;46.90;25.70;;;;;;5032573;28;19917;-71
2021/08/31 09:27:56;;;;;;;;;;;47.10;25.60;;;;;;5031541;28;19925;-71
2021/08/31 09:30:22;;;;;;;;;;;46.90;25.20;;;;;;5032548;28;19917;-71
2021/08/31 09:33:04;;;;;;;;;;;46.90;25.20;;;;;;5032478;28;19960;-69
2021/08/31 09:35:33;;;;;;;;;;;47.00;25.30;;;;;;5031759;28;19921;-70
2021/08/31 09:38:03;;;;;;;;;;;47.00;25.00;;;;;;5031603;28;20288;-70
2021/08/31 09:40:31;;;;;;;;;;;47.00;25.10;;;;;;5029385;28;20436;-69
2021/08/31 09:42:59;;;;;;;;;;;47.70;25.00;;;;;;5028028;28;19921;-69
2021/08/31 09:45:30;;;;;;;;;;;48.00;24.90;;;;;;5015776;28;20005;-70
2021/08/31 09:47:56;;;;;;;;;;;48.20;24.60;;;;;;5028719;28;19961;-70
2021/08/31 09:50:30;;;;;;;;;;;48.20;24.50;;;;;;5032234;28;19921;-70
2021/08/31 09:52:59;;;;;;;;;;;48.10;24.20;;;;;;5018901;28;20564;-71
2021/08/31 09:55:25;;;;;;;;;;;48.10;24.10;;;;;;5029003;28;20004;-70
2021/08/31 09:57:51;;;;;;;;;;;48.40;24.20;;;;;;5015702;28;20004;-71
2021/08/31 10:00:18;;;;;;;;;;;48.70;24.20;;;;;;5024816;28;19917;-71
2021/08/31 10:02:48;;;;;;;;;;;48.80;24.00;;;;;;5024227;28;20344;-70
2021/08/31 10:05:13;;;;;;;;;;;48.80;23.90;;;;;;5016510;28;19949;-71
2021/08/31 10:07:41;;;;;;;;;;;48.70;23.70;;;;;;5029776;28;19948;-70
2021/08/31 10:10:07;;;;;;;;;;;48.80;23.90;;;;;;5032264;28;19923;-70
2021/08/31 10:12:34;;;;;;;;;;;48.70;23.80;;;;;;5021781;28;19983;-70
2021/08/31 10:15:01;;;;;;;;;;;48.50;23.70;;;;;;5026160;28;20433;-69
2021/08/31 10:17:27;;;;;;;;;;;46.50;23.10;;;;;;5015017;28;19918;-71
2021/08/31 10:19:55;;;;;;;;;;;43.90;23.90;;;;;;5014536;28;19917;-72
2021/08/31 10:22:21;;;;;;;;;;;43.50;25.30;;;;;;5032264;28;19918;-70
2021/08/31 10:24:47;;;;;;;;;;;44.20;25.40;;;;;;5025193;28;20075;-70
2021/08/31 10:27:31;;;;;;;;;;;45.20;25.60;;;;;;5030950;28;19917;-70
2021/08/31 10:30:15;;;;;;;;;;;46.10;25.30;;;;;;5012660;28;19924;-71
2021/08/31 10:32:41;;;;;;;;;;;44.50;24.00;;;;;;5031041;28;20271;-69
2021/08/31 10:35:08;;;;;;;;;;;42.10;25.00;;;;;;5025852;28;19971;-68
2021/08/31 10:37:44;;;;;;;;;;;40.50;25.20;;;;;;5013246;28;19961;-69
2021/08/31 10:40:09;;;;;;;;;;;38.00;26.50;;;;;;5024631;28;19918;-69
2021/08/31 10:42:35;;;;;;;;;;;38.00;27.70;;;;;;5021921;28;20612;-70
2021/08/31 10:45:04;;;;;;;;;;;39.70;28.30;;;;;;5000213;28;19917;-69
2021/08/31 10:47:33;;;;;;;;;;;40.90;27.50;;;;;;5027576;28;19967;-70
2021/08/31 10:49:59;;;;;;;;;;;40.10;26.60;;;;;;5011811;28;19925;-70
2021/08/31 10:52:38;;;;;;;;;;;39.70;26.60;;;;;;5019842;28;19923;-68
2021/08/31 10:55:05;;;;;;;;;;;40.10;27.40;;;;;;5001838;28;19955;-69
2021/08/31 10:57:36;;;;;;;;;;;41.60;27.60;;;;;;5028877;28;19921;-70
2021/08/31 11:00:05;;;;;;;;;;;43.50;27.20;;;;;;5030883;28;19921;-69
2021/08/31 11:02:51;;;;;;;;;;;45.10;26.30;;;;;;5028078;28;19971;-70
2021/08/31 11:05:20;;;;;;;;;;;45.50;25.20;;;;;;5028679;28;20004;-71
2021/08/31 11:07:46;;;;;;;;;;;45.30;25.10;;;;;;5023103;28;20020;-69
2021/08/31 11:10:19;;;;;;;;;;;45.40;25.00;;;;;;5027237;28;19955;-69
2021/08/31 11:12:44;;;;;;;;;;;45.80;25.10;;;;;;5023503;28;20309;-69
2021/08/31 11:15:17;;;;;;;;;;;45.90;24.90;;;;;;5023378;28;19918;-69
2021/08/31 11:17:43;;;;;;;;;;;45.90;24.80;;;;;;5030867;28;19925;-70
2021/08/31 11:20:16;;;;;;;;;;;45.30;24.50;;;;;;5020151;28;19913;-71
2021/08/31 11:22:42;;;;;;;;;;;44.40;25.00;;;;;;5007679;28;19917;-70
2021/08/31 11:25:08;;;;;;;;;;;43.10;24.50;;;;;;5030580;28;20335;-69
2021/08/31 11:28:12;;;;;;;;;;;40.40;24.70;;;;;;5035241;28;20048;-68
2021/08/31 11:30:48;;;;;;;;;;;36.20;25.60;;;;;;4963470;28;19923;-68
2021/08/31 11:33:17;;;;;;;;;;;34.40;27.10;;;;;;4958390;28;20013;-68
2021/08/31 11:35:43;;;;;;;;;;;32.60;28.30;;;;;;5003907;28;20024;-68
2021/08/31 11:38:08;;;;;;;;;;;31.70;30.40;;;;;;5021772;28;20389;-70
2021/08/31 11:40:34;;;;;;;;;;;34.00;33.10;;;;;;5024947;28;19917;-69
2021/08/31 11:42:59;;;;;;;;;;;36.50;32.40;;;;;;5032688;28;19917;-70
2021/08/31 11:45:45;;;;;;;;;;;39.00;30.50;;;;;;5015983;28;20453;-70
2021/08/31 11:48:10;;;;;;;;;;;40.70;29.10;;;;;;5016720;28;19925;-69
2021/08/31 11:50:36;;;;;;;;;;;41.30;27.60;;;;;;5042487;28;19975;-70
2021/08/31 11:53:18;;;;;;;;;;;40.50;26.90;;;;;;5001713;28;19925;-69
2021/08/31 11:55:53;;;;;;;;;;;38.50;26.20;;;;;;5027060;28;19925;-70
2021/08/31 11:58:19;;;;;;;;;;;36.10;26.90;;;;;;4982730;28;19924;-70
2021/08/31 12:00:45;;;;;;;;;;;33.40;27.30;;;;;;5038155;28;20242;-70
2021/08/31 12:03:17;;;;;;;;;;;32.10;28.60;;;;;;5018095;28;19921;-70
2021/08/31 12:05:43;;;;;;;;;;;31.20;29.50;;;;;;5026739;28;19924;-70
2021/08/31 12:08:09;;;;;;;;;;;30.80;29.90;;;;;;5018139;28;19921;-68
2021/08/31 12:10:34;;;;;;;;;;;30.40;30.30;;;;;;5029097;28;20051;-70
2021/08/31 12:13:00;;;;;;;;;;;30.20;31.60;;;;;;5030267;28;19968;-70
2021/08/31 12:15:26;;;;;;;;;;;29.90;32.20;;;;;;5034324;28;20012;-70
2021/08/31 12:17:59;;;;;;;;;;;29.60;32.30;;;;;;5025307;28;20370;-69
2021/08/31 12:20:24;;;;;;;;;;;28.60;32.30;;;;;;5024529;28;19917;-69
2021/08/31 12:22:51;;;;;;;;;;;28.10;33.70;;;;;;5016240;28;20275;-70
2021/08/31 12:25:18;;;;;;;;;;;27.70;34.50;;;;;;5010422;28;19930;-70
2021/08/31 12:27:45;;;;;;;;;;;27.20;34.90;;;;;;5004018;28;19926;-70
2021/08/31 12:30:12;;;;;;;;;;;26.70;35.90;;;;;;5006643;28;19917;-69
2021/08/31 12:32:37;;;;;;;;;;;26.70;37.10;;;;;;5028725;28;19929;-70
2021/08/31 12:35:22;;;;;;;;;;;27.10;37.70;;;;;;5011056;28;19913;-70
2021/08/31 12:38:02;;;;;;;;;;;27.80;38.20;;;;;;5019975;28;20444;-70
2021/08/31 12:40:28;;;;;;;;;;;29.10;37.70;;;;;;5013429;28;20008;-69
2021/08/31 12:43:01;;;;;;;;;;;29.90;38.30;;;;;;5015358;28;20000;-70
2021/08/31 12:45:27;;;;;;;;;;;30.70;37.50;;;;;;5033587;28;20022;-70
2021/08/31 12:47:54;;;;;;;;;;;30.20;35.20;;;;;;4999246;28;20287;-69
2021/08/31 12:50:19;;;;;;;;;;;28.70;34.70;;;;;;5030996;28;20435;-70
2021/08/31 12:52:55;;;;;;;;;;;28.10;35.80;;;;;;5032700;28;19917;-69
2021/08/31 12:55:21;;;;;;;;;;;27.50;36.60;;;;;;5033036;28;20389;-69
2021/08/31 12:57:47;;;;;;;;;;;27.20;37.50;;;;;;5033120;28;19959;-69
2021/08/31 13:00:19;;;;;;;;;;;27.00;37.80;;;;;;5032697;28;19917;-69
2021/08/31 13:02:45;;;;;;;;;;;27.00;38.50;;;;;;5032786;28;19917;-69
2021/08/31 13:05:11;;;;;;;;;;;27.10;38.70;;;;;;5032789;28;19913;-69
2021/08/31 13:07:37;;;;;;;;;;;27.00;38.60;;;;;;4998830;28;19917;-70
2021/08/31 13:10:02;;;;;;;;;;;26.60;38.60;;;;;;5015324;28;20285;-69
2021/08/31 13:12:28;;;;;;;;;;;26.50;39.60;;;;;;5031965;28;20385;-70
2021/08/31 13:14:56;;;;;;;;;;;26.40;40.50;;;;;;5032613;28;19921;-69
2021/08/31 13:17:23;;;;;;;;;;;26.30;40.90;;;;;;5014916;28;19913;-70
2021/08/31 13:19:48;;;;;;;;;;;26.60;41.10;;;;;;5032468;28;19917;-70
2021/08/31 13:22:14;;;;;;;;;;;26.80;41.50;;;;;;5032419;28;19948;-69
2021/08/31 13:24:40;;;;;;;;;;;27.00;41.50;;;;;;5031944;28;19917;-69
2021/08/31 13:27:05;;;;;;;;;;;27.30;41.00;;;;;;5032294;28;20285;-69
2021/08/31 13:29:31;;;;;;;;;;;27.50;40.00;;;;;;5014881;28;19917;-69
2021/08/31 13:31:56;;;;;;;;;;;27.50;40.60;;;;;;5014853;28;19928;-69
2021/08/31 13:34:22;;;;;;;;;;;27.40;40.40;;;;;;5034831;28;19929;-69
2021/08/31 13:36:47;;;;;;;;;;;27.30;40.60;;;;;;5033637;28;19918;-69
2021/08/31 13:39:13;;;;;;;;;;;27.10;40.50;;;;;;5031944;28;19917;-70
2021/08/31 13:41:39;;;;;;;;;;;27.00;41.10;;;;;;5032037;28;20008;-69
2021/08/31 13:44:05;;;;;;;;;;;27.00;41.50;;;;;;5032165;28;19917;-70
2021/08/31 13:46:32;;;;;;;;;;;26.90;41.60;;;;;;5032352;28;21309;-69
2021/08/31 13:48:58;;;;;;;;;;;26.60;41.30;;;;;;5031830;28;19925;-70
2021/08/31 13:51:23;;;;;;;;;;;26.60;41.80;;;;;;5013819;28;19949;-70
2021/08/31 13:53:49;;;;;;;;;;;26.20;41.90;;;;;;5032045;28;20356;-69
2021/08/31 13:56:14;;;;;;;;;;;25.70;42.40;;;;;;5014408;28;19917;-69
2021/08/31 13:58:40;;;;;;;;;;;24.80;42.90;;;;;;5013643;28;19924;-69
2021/08/31 14:01:05;;;;;;;;;;;24.70;43.30;;;;;;5014246;28;19967;-69
2021/08/31 14:03:31;;;;;;;;;;;24.40;43.70;;;;;;5031370;28;20051;-69
2021/08/31 14:05:57;;;;;;;;;;;24.10;44.30;;;;;;5031941;28;19963;-68
2021/08/31 14:08:22;;;;;;;;;;;24.00;44.90;;;;;;5031436;28;19917;-68
2021/08/31 14:10:48;;;;;;;;;;;23.90;44.80;;;;;;5013373;28;19921;-69
2021/08/31 14:13:13;;;;;;;;;;;23.90;45.50;;;;;;5031433;28;20251;-69